FVFG weather

Fothergill Airport
Fothergill, Mashonaland West Province, Zimbabwe

Public forecast

Using degrees Celsius for public forecast. Weather courtesy of forecast.io.

Closest aviation weather report (METAR) to Fothergill Airport

Report is more than 6 hours old.

Closest report is Kariba International Airport, 17.0 nm (31.6 km) NE. Retrieved 2020/07/07 06:00 UTC (17 hours ago):

FVKB 070600Z 00000KT CAVOK 17/09 Q1021 NOSIG

Closest aviation forecast (TAF) to Fothergill Airport

Forecast is more than 12 hours old.

Closest forecast is Kariba International Airport, 17.0 nm (31.6 km) NE. Retrieved 2018/08/24 06:00 UTC (2 years ago):

TAF FVKB 240400Z 2406/2416 27005KT CAVOK